createdAt,value
2022-09-20T00:04:43.190Z,96164.38
2022-09-20T00:09:45.485Z,96133.28
2022-09-20T00:14:47.744Z,96194.13
2022-09-20T00:19:49.958Z,96189.09
2022-09-20T00:24:52.173Z,96196.75
2022-09-20T00:29:54.289Z,96158.72
2022-09-20T00:35:08.470Z,96184.88
2022-09-20T00:40:17.525Z,96190.00
2022-09-20T00:45:22.667Z,96184.84
2022-09-20T00:50:30.979Z,96201.44
2022-09-20T00:55:37.429Z,96175.03
2022-09-20T01:00:41.040Z,96189.53
2022-09-20T01:05:44.976Z,96183.38
2022-09-20T01:10:47.804Z,96174.75
2022-09-20T01:15:51.796Z,96173.53
2022-09-20T01:20:54.826Z,96155.19
2022-09-20T01:26:16.509Z,96161.91
2022-09-20T01:31:24.301Z,96160.50
2022-09-20T01:36:31.872Z,96169.91
2022-09-20T01:41:53.239Z,96154.59
2022-09-20T01:47:01.240Z,96173.28
2022-09-20T01:52:38.528Z,96167.03
2022-09-20T01:58:13.194Z,96175.06
2022-09-20T02:03:25.792Z,96155.78
2022-09-20T02:09:14.188Z,96155.94
2022-09-20T02:14:40.424Z,96165.44
2022-09-20T02:19:59.899Z,96157.59
2022-09-20T02:25:12.630Z,96162.84
2022-09-20T02:30:32.954Z,96174.06
2022-09-20T02:35:58.269Z,96173.09
2022-09-20T02:41:27.918Z,96171.06
2022-09-20T02:46:48.520Z,96171.31
2022-09-20T02:52:02.980Z,96161.78
2022-09-20T02:57:20.812Z,96180.75
2022-09-20T03:02:30.612Z,96174.28
2022-09-20T03:07:47.631Z,96166.84
2022-09-20T03:12:57.508Z,96187.13
2022-09-20T03:18:16.520Z,96180.94
2022-09-20T03:24:03.519Z,96191.16
2022-09-20T03:29:16.506Z,96172.94
2022-09-20T03:34:39.873Z,96209.78
2022-09-20T03:40:12.549Z,96214.00
2022-09-20T03:45:23.965Z,96224.34
2022-09-20T03:50:44.772Z,96240.34
2022-09-20T03:55:49.909Z,96241.59
2022-09-20T04:01:02.256Z,96252.44
2022-09-20T04:06:19.802Z,96255.50
2022-09-20T04:11:41.629Z,96261.81
2022-09-20T04:16:53.588Z,96260.81
2022-09-20T04:22:00.890Z,96254.69
2022-09-20T04:27:18.342Z,96268.88
2022-09-20T04:32:20.762Z,96267.75
2022-09-20T04:37:33.718Z,96244.28
2022-09-20T04:43:17.714Z,96257.53
2022-09-20T04:49:03.627Z,96262.50
2022-09-20T04:54:59.180Z,96267.75
2022-09-20T05:00:15.132Z,96263.13
2022-09-20T05:05:41.667Z,96280.84
2022-09-20T05:10:53.073Z,96271.09
2022-09-20T05:16:00.307Z,96282.38
2022-09-20T05:21:27.192Z,96275.31
2022-09-20T05:26:45.552Z,96287.13
2022-09-20T05:31:55.284Z,96255.63
2022-09-20T05:37:34.941Z,96281.41
2022-09-20T05:42:43.388Z,96286.00
2022-09-20T05:48:10.593Z,96295.66
2022-09-20T05:53:35.072Z,96285.97
2022-09-20T05:58:58.380Z,96272.50
2022-09-20T06:04:12.669Z,96246.91
2022-09-20T06:09:37.812Z,96258.34
2022-09-20T06:14:46.283Z,96253.31
2022-09-20T06:20:16.181Z,96255.56
2022-09-20T06:25:47.966Z,96274.47
2022-09-20T06:30:55.882Z,96245.97
2022-09-20T06:36:24.091Z,96250.75
2022-09-20T06:41:31.053Z,96253.59
2022-09-20T06:46:39.522Z,96258.53
2022-09-20T06:51:42.211Z,96242.47
2022-09-20T06:56:47.138Z,96242.03
2022-09-20T07:01:49.558Z,96257.28
2022-09-20T07:06:51.839Z,96247.25
2022-09-20T07:11:56.245Z,96285.38
2022-09-20T07:16:58.631Z,96276.53
2022-09-20T07:22:00.888Z,96243.34
2022-09-20T07:27:05.455Z,96253.47
2022-09-20T07:32:07.902Z,96257.88
2022-09-20T07:37:10.148Z,96257.84
2022-09-20T07:42:13.433Z,96243.88
2022-09-20T07:53:38.499Z,96280.75
2022-09-20T07:58:41.825Z,96240.84
2022-09-20T08:03:45.177Z,96252.25
2022-09-20T08:08:47.474Z,96272.25
2022-09-20T08:14:07.791Z,96233.66
2022-09-20T08:19:19.240Z,96264.13
2022-09-20T08:24:21.784Z,96234.00
2022-09-20T08:29:23.949Z,96259.94
2022-09-20T08:34:26.103Z,96247.06
2022-09-20T08:44:58.871Z,96252.34
2022-09-20T08:50:10.035Z,96255.56
2022-09-20T08:55:20.172Z,96262.31
2022-09-20T09:00:30.887Z,96256.94
2022-09-20T09:05:43.620Z,96272.72
2022-09-20T09:10:54.362Z,96225.63
2022-09-20T09:16:06.887Z,96249.88
2022-09-20T09:21:17.596Z,96222.94
2022-09-20T09:26:25.216Z,96210.63
2022-09-20T09:31:27.545Z,96227.56
2022-09-20T09:36:29.788Z,96206.41
2022-09-20T09:41:36.129Z,96230.09
2022-09-20T09:46:40.464Z,96237.50
2022-09-20T09:52:05.463Z,96234.22
2022-09-20T09:57:26.287Z,96227.88
2022-09-20T10:02:49.860Z,96247.06
2022-09-20T10:08:15.713Z,96227.03
2022-09-20T10:13:17.930Z,96256.53
2022-09-20T10:18:35.322Z,96234.00
2022-09-20T10:24:05.516Z,96222.41
2022-09-20T10:29:17.276Z,96209.31
2022-09-20T10:34:44.624Z,96200.09
2022-09-20T10:39:55.355Z,96213.38
2022-09-20T10:45:00.793Z,96228.09
2022-09-20T10:50:43.288Z,96223.28
2022-09-20T10:56:16.058Z,96245.91
2022-09-20T11:01:42.946Z,96221.38
2022-09-20T11:07:07.765Z,96221.19
2022-09-20T11:12:16.792Z,96207.50
2022-09-20T11:17:22.118Z,96216.03
2022-09-20T11:22:44.121Z,96199.75
2022-09-20T11:27:56.349Z,96220.03
2022-09-20T11:33:20.529Z,96207.03
2022-09-20T11:38:33.364Z,96208.81
2022-09-20T11:43:40.745Z,96194.56
2022-09-20T11:48:48.073Z,96175.03
2022-09-20T11:54:05.357Z,96194.19
2022-09-20T11:59:43.672Z,96186.41
2022-09-20T12:04:49.854Z,96181.16
2022-09-20T12:09:57.093Z,96186.97
2022-09-20T12:15:03.100Z,96177.94
2022-09-20T12:20:38.907Z,96185.56
2022-09-20T12:25:41.359Z,96143.09
2022-09-20T12:30:43.627Z,96194.28
2022-09-20T12:35:57.875Z,96181.28
2022-09-20T12:41:14.254Z,96188.03
2022-09-20T12:46:36.370Z,96143.22
2022-09-20T12:51:57.487Z,96149.31
2022-09-20T12:57:18.166Z,96152.72
2022-09-20T13:02:53.098Z,96169.25
2022-09-20T13:08:03.170Z,96164.13
2022-09-20T13:13:16.012Z,96170.25
2022-09-20T13:18:18.658Z,96152.50
2022-09-20T13:23:30.637Z,96151.34
2022-09-20T13:28:48.126Z,96172.31
2022-09-20T13:33:50.829Z,96137.03
2022-09-20T13:38:55.592Z,96163.16
2022-09-20T13:43:58.023Z,96183.03
2022-09-20T13:49:09.414Z,96189.47
2022-09-20T13:54:32.390Z,96184.94
2022-09-20T13:59:42.411Z,96190.50
2022-09-20T14:04:44.798Z,96168.66
2022-09-20T14:09:47.037Z,96172.91
2022-09-20T14:14:51.371Z,96171.78
2022-09-20T14:19:55.623Z,96143.69
2022-09-20T14:25:22.465Z,96151.06
2022-09-20T14:30:31.042Z,96179.69
2022-09-20T14:35:33.949Z,96159.78
2022-09-20T14:40:48.437Z,96160.72
2022-09-20T14:45:56.996Z,96140.84
2022-09-20T14:51:25.601Z,96156.41
2022-09-20T14:56:34.538Z,96162.84
2022-09-20T15:01:41.442Z,96123.28
2022-09-20T15:06:43.842Z,96163.16
2022-09-20T15:11:46.408Z,96152.16
2022-09-20T15:16:51.414Z,96170.81
2022-09-20T15:21:53.920Z,96175.84
2022-09-20T15:26:56.433Z,96179.00
2022-09-20T15:31:58.813Z,96174.13
2022-09-20T15:37:01.101Z,96165.84
2022-09-20T15:42:03.538Z,96183.34
2022-09-20T15:47:05.758Z,96182.66
2022-09-20T15:52:07.944Z,96178.09
2022-09-20T15:57:10.165Z,96191.81
2022-09-20T16:02:12.868Z,96194.19
2022-09-20T16:07:16.329Z,96191.69
2022-09-20T16:12:18.952Z,96219.78
2022-09-20T16:17:41.187Z,96196.94
2022-09-20T16:22:43.509Z,96215.13
2022-09-20T16:27:45.883Z,96236.03
2022-09-20T16:33:06.914Z,96244.91
2022-09-20T16:38:10.808Z,96240.75
2022-09-20T16:43:13.020Z,96243.19
2022-09-20T16:48:15.459Z,96243.41
2022-09-20T16:53:17.573Z,96245.66
2022-09-20T16:58:20.277Z,96265.06
2022-09-20T17:03:27.275Z,96263.31
2022-09-20T17:08:29.481Z,96262.38
2022-09-20T17:13:35.168Z,96280.22
2022-09-20T17:18:42.224Z,96287.38
2022-09-20T17:23:50.801Z,96291.56
2022-09-20T17:28:58.647Z,96274.50
2022-09-20T17:34:02.469Z,96289.66
2022-09-20T17:39:05.014Z,96305.69
2022-09-20T17:44:10.315Z,96292.28
2022-09-20T17:49:18.083Z,96291.06
2022-09-20T17:54:21.219Z,96305.38
2022-09-20T17:59:23.628Z,96301.69
2022-09-20T18:04:25.967Z,96312.22
2022-09-20T18:09:28.354Z,96321.06
2022-09-20T18:14:32.186Z,96288.91
2022-09-20T18:19:34.399Z,96326.53
2022-09-20T18:24:36.778Z,96339.72
2022-09-20T18:29:39.123Z,96346.31
2022-09-20T18:34:41.464Z,96335.34
2022-09-20T18:39:43.963Z,96336.88
2022-09-20T18:44:46.325Z,96350.56
2022-09-20T18:49:48.604Z,96320.97
2022-09-20T18:54:50.733Z,96349.28
2022-09-20T18:59:54.697Z,96336.78
2022-09-20T19:05:08.531Z,96364.97
2022-09-20T19:10:42.067Z,96348.88
2022-09-20T19:16:03.128Z,96361.06
2022-09-20T19:21:42.651Z,96354.44
2022-09-20T19:26:45.833Z,96357.66
2022-09-20T19:31:50.892Z,96359.91
2022-09-20T19:37:20.791Z,96370.28
2022-09-20T19:42:50.313Z,96350.13
2022-09-20T19:48:22.300Z,96366.91
2022-09-20T19:53:27.325Z,96350.63
2022-09-20T19:58:29.849Z,96384.47
2022-09-20T20:03:32.213Z,96360.59
2022-09-20T20:08:43.273Z,96372.84
2022-09-20T20:14:03.336Z,96342.94
2022-09-20T20:19:25.286Z,96381.31
2022-09-20T20:24:40.177Z,96383.63
2022-09-20T20:29:42.465Z,96348.31
2022-09-20T20:34:44.647Z,96372.03
2022-09-20T20:39:47.575Z,96357.34
2022-09-20T20:44:49.806Z,96375.00
2022-09-20T20:49:53.678Z,96351.84
2022-09-20T20:54:57.713Z,96371.44
2022-09-20T21:00:00.853Z,96356.13
2022-09-20T21:05:02.956Z,96356.09
2022-09-20T21:10:05.616Z,96374.25
2022-09-20T21:15:08.058Z,96383.06
2022-09-20T21:20:10.510Z,96352.91
2022-09-20T21:25:12.940Z,96367.03
2022-09-20T21:30:15.438Z,96383.91
2022-09-20T21:35:17.646Z,96389.72
2022-09-20T21:40:19.759Z,96365.06
2022-09-20T21:45:27.536Z,96357.03
2022-09-20T21:50:29.669Z,96356.34
2022-09-20T21:55:32.029Z,96359.59
2022-09-20T22:00:36.036Z,96356.25
2022-09-20T22:05:38.103Z,96367.53
2022-09-20T22:10:40.407Z,96367.44
2022-09-20T22:15:42.867Z,96383.66
2022-09-20T22:20:45.839Z,96367.59
2022-09-20T22:25:47.896Z,96340.63
2022-09-20T22:30:49.989Z,96356.03
2022-09-20T22:35:52.571Z,96364.84
2022-09-20T22:41:00.110Z,96385.84
2022-09-20T22:46:04.681Z,96390.34
2022-09-20T22:51:09.142Z,96356.13
2022-09-20T22:56:17.488Z,96384.94
2022-09-20T23:01:21.503Z,96356.56
2022-09-20T23:06:26.725Z,96388.13
2022-09-20T23:11:29.822Z,96362.09
2022-09-20T23:16:37.096Z,96333.03
2022-09-20T23:21:40.924Z,96372.75
2022-09-20T23:26:44.462Z,96362.72
2022-09-20T23:31:48.058Z,96360.78
2022-09-20T23:36:50.283Z,96367.19
2022-09-20T23:41:52.320Z,96341.75
2022-09-20T23:46:54.571Z,96344.69
2022-09-20T23:51:56.845Z,96364.41
2022-09-20T23:56:59.492Z,96347.03
